createdAt,value
2023-04-23T00:00:18.109Z,18.92
2023-04-23T00:01:18.165Z,18.90
2023-04-23T00:02:18.295Z,18.90
2023-04-23T00:03:18.364Z,18.86
2023-04-23T00:04:18.447Z,18.89
2023-04-23T00:05:18.387Z,18.87
2023-04-23T00:06:18.396Z,18.83
2023-04-23T00:07:18.422Z,18.79
2023-04-23T00:08:18.453Z,18.79
2023-04-23T00:09:18.457Z,18.76
2023-04-23T00:10:18.455Z,18.72
2023-04-23T00:11:18.492Z,18.72
2023-04-23T00:12:18.562Z,18.68
2023-04-23T00:13:18.679Z,18.66
2023-04-23T00:14:18.649Z,18.68
2023-04-23T00:15:18.668Z,18.68
2023-04-23T00:16:18.699Z,18.69
2023-04-23T00:17:18.684Z,18.65
2023-04-23T00:18:18.663Z,18.63
2023-04-23T00:19:18.745Z,18.65
2023-04-23T00:20:18.728Z,18.66
2023-04-23T00:21:18.781Z,18.62
2023-04-23T00:22:18.833Z,18.60
2023-04-23T00:23:18.908Z,18.60
2023-04-23T00:24:18.947Z,18.58
2023-04-23T00:25:18.976Z,18.56
2023-04-23T00:26:18.998Z,18.55
2023-04-23T00:27:19.051Z,18.54
2023-04-23T00:28:21.534Z,18.54
2023-04-23T00:29:19.075Z,18.51
2023-04-23T00:30:19.060Z,18.54
2023-04-23T00:31:19.079Z,18.52
2023-04-23T00:32:19.077Z,18.54
2023-04-23T00:33:19.065Z,18.55
2023-04-23T00:34:19.041Z,18.52
2023-04-23T00:35:19.067Z,18.55
2023-04-23T00:36:19.040Z,18.52
2023-04-23T00:37:19.023Z,18.54
2023-04-23T00:38:19.047Z,18.52
2023-04-23T00:39:19.011Z,18.55
2023-04-23T00:40:19.000Z,18.56
2023-04-23T00:41:19.009Z,18.55
2023-04-23T00:42:18.981Z,18.54
2023-04-23T00:43:18.999Z,18.51
2023-04-23T00:44:18.994Z,18.54
2023-04-23T00:45:18.983Z,18.55
2023-04-23T00:46:19.009Z,18.55
2023-04-23T00:47:19.003Z,18.52
2023-04-23T00:48:18.955Z,18.55
2023-04-23T00:49:18.958Z,18.51
2023-04-23T00:50:18.959Z,18.47
2023-04-23T00:51:18.933Z,18.47
2023-04-23T00:52:18.926Z,18.41
2023-04-23T00:53:18.932Z,18.41
2023-04-23T00:54:18.909Z,18.38
2023-04-23T00:55:18.914Z,18.39
2023-04-23T00:56:18.896Z,18.35
2023-04-23T00:57:18.905Z,18.34
2023-04-23T00:58:18.912Z,18.32
2023-04-23T00:59:18.887Z,18.32
2023-04-23T01:00:18.891Z,18.34
2023-04-23T01:01:18.900Z,18.31
2023-04-23T01:02:18.964Z,18.35
2023-04-23T01:03:19.004Z,18.34
2023-04-23T01:04:18.876Z,18.37
2023-04-23T01:05:18.851Z,18.35
2023-04-23T01:06:18.821Z,18.38
2023-04-23T01:07:18.836Z,18.35
2023-04-23T01:08:18.845Z,18.39
2023-04-23T01:09:18.820Z,18.39
2023-04-23T01:10:18.806Z,18.39
2023-04-23T01:11:18.791Z,18.39
2023-04-23T01:12:18.800Z,18.41
2023-04-23T01:13:18.776Z,18.42
2023-04-23T01:14:18.788Z,18.41
2023-04-23T01:15:18.767Z,18.44
2023-04-23T01:16:18.782Z,18.39
2023-04-23T01:17:18.754Z,18.41
2023-04-23T01:18:18.807Z,18.39
2023-04-23T01:19:18.739Z,18.41
2023-04-23T01:20:18.742Z,18.42
2023-04-23T01:21:18.735Z,18.47
2023-04-23T01:22:18.739Z,18.47
2023-04-23T01:23:18.732Z,18.49
2023-04-23T01:24:18.706Z,18.51
2023-04-23T01:25:18.717Z,18.31
2023-04-23T01:26:18.710Z,18.48
2023-04-23T01:27:18.705Z,18.44
2023-04-23T01:28:18.678Z,18.45
2023-04-23T01:29:18.676Z,18.42
2023-04-23T01:30:18.676Z,18.39
2023-04-23T01:31:18.703Z,18.37
2023-04-23T01:32:18.664Z,18.29
2023-04-23T01:33:18.658Z,18.32
2023-04-23T01:34:18.647Z,18.27
2023-04-23T01:35:18.630Z,18.25
2023-04-23T01:36:18.634Z,18.21
2023-04-23T01:37:18.622Z,18.15
2023-04-23T01:38:18.622Z,18.14
2023-04-23T01:39:18.603Z,18.12
2023-04-23T01:40:18.606Z,18.11
2023-04-23T01:41:18.599Z,18.10
2023-04-23T01:42:18.573Z,18.07
2023-04-23T01:43:18.584Z,18.08
2023-04-23T01:44:18.575Z,18.05
2023-04-23T01:45:18.565Z,18.05
2023-04-23T01:46:18.596Z,18.10
2023-04-23T01:47:18.567Z,18.05
2023-04-23T01:48:18.552Z,18.07
2023-04-23T01:49:18.525Z,18.07
2023-04-23T01:50:18.557Z,18.04
2023-04-23T01:51:18.512Z,18.04
2023-04-23T01:52:18.500Z,18.05
2023-04-23T01:53:18.505Z,18.05
2023-04-23T01:54:18.492Z,18.07
2023-04-23T01:55:18.486Z,18.08
2023-04-23T01:56:18.470Z,18.07
2023-04-23T01:57:18.458Z,18.08
2023-04-23T01:58:18.470Z,18.08
2023-04-23T01:59:18.460Z,18.10
2023-04-23T02:00:18.447Z,18.08
2023-04-23T02:01:18.455Z,18.07
2023-04-23T02:02:18.435Z,18.08
2023-04-23T02:03:18.481Z,18.07
2023-04-23T02:04:18.532Z,18.04
2023-04-23T02:05:18.509Z,18.04
2023-04-23T02:06:18.395Z,18.04
2023-04-23T02:07:18.407Z,18.03
2023-04-23T02:08:18.454Z,18.03
2023-04-23T02:09:18.434Z,17.98
2023-04-23T02:10:18.462Z,17.96
2023-04-23T02:11:18.502Z,17.96
2023-04-23T02:12:18.550Z,17.96
2023-04-23T02:13:18.507Z,17.94
2023-04-23T02:14:18.523Z,17.91
2023-04-23T02:15:18.557Z,17.93
2023-04-23T02:16:18.606Z,17.93
2023-04-23T02:17:18.569Z,17.91
2023-04-23T02:18:18.571Z,17.91
2023-04-23T02:19:18.578Z,17.93
2023-04-23T02:20:18.596Z,17.96
2023-04-23T02:21:18.619Z,17.94
2023-04-23T02:22:18.616Z,17.93
2023-04-23T02:23:18.634Z,17.91
2023-04-23T02:24:18.641Z,17.91
2023-04-23T02:25:18.655Z,17.90
2023-04-23T02:26:18.864Z,17.88
2023-04-23T02:27:18.684Z,17.88
2023-04-23T02:28:18.723Z,17.87
2023-04-23T02:29:18.715Z,17.87
2023-04-23T02:30:18.713Z,17.84
2023-04-23T02:31:18.778Z,17.84
2023-04-23T02:32:18.746Z,17.84
2023-04-23T02:33:18.728Z,17.84
2023-04-23T02:34:18.732Z,17.84
2023-04-23T02:35:18.759Z,17.81
2023-04-23T02:36:18.751Z,17.84
2023-04-23T02:37:18.769Z,17.83
2023-04-23T02:38:18.782Z,17.84
2023-04-23T02:39:18.797Z,17.83
2023-04-23T02:40:18.808Z,17.83
2023-04-23T02:41:18.795Z,17.84
2023-04-23T02:42:18.806Z,17.80
2023-04-23T02:43:18.830Z,17.84
2023-04-23T02:44:18.848Z,17.83
2023-04-23T02:45:18.863Z,17.80
2023-04-23T02:46:18.895Z,17.81
2023-04-23T02:47:18.878Z,17.80
2023-04-23T02:48:18.926Z,17.80
2023-04-23T02:49:18.927Z,17.84
2023-04-23T02:50:18.927Z,17.84
2023-04-23T02:51:18.961Z,17.83
2023-04-23T02:52:18.966Z,17.83
2023-04-23T02:53:19.001Z,17.86
2023-04-23T02:54:19.000Z,17.83
2023-04-23T02:55:19.013Z,17.84
2023-04-23T02:56:19.025Z,17.83
2023-04-23T02:57:19.022Z,17.81
2023-04-23T02:58:19.053Z,17.84
2023-04-23T02:59:19.033Z,17.81
2023-04-23T03:00:19.068Z,17.83
2023-04-23T03:01:19.110Z,17.84
2023-04-23T03:02:19.084Z,17.83
2023-04-23T03:03:19.174Z,17.84
2023-04-23T03:04:19.146Z,17.84
2023-04-23T03:05:19.072Z,17.81
2023-04-23T03:06:19.102Z,17.84
2023-04-23T03:07:19.105Z,17.86
2023-04-23T03:08:19.126Z,17.86
2023-04-23T03:09:19.121Z,17.84
2023-04-23T03:10:19.136Z,17.87
2023-04-23T03:11:19.161Z,17.88
2023-04-23T03:12:19.148Z,17.88
2023-04-23T03:13:19.181Z,17.87
2023-04-23T03:14:19.197Z,17.88
2023-04-23T03:15:19.191Z,17.86
2023-04-23T03:16:19.236Z,17.84
2023-04-23T03:17:19.235Z,17.87
2023-04-23T03:18:19.267Z,17.86
2023-04-23T03:19:19.247Z,17.80
2023-04-23T03:20:19.269Z,17.79
2023-04-23T03:21:19.287Z,17.76
2023-04-23T03:22:19.296Z,17.67
2023-04-23T03:23:19.303Z,17.72
2023-04-23T03:24:19.326Z,17.70
2023-04-23T03:25:19.355Z,17.70
2023-04-23T03:26:19.358Z,17.66
2023-04-23T03:27:19.380Z,17.59
2023-04-23T03:28:19.422Z,17.62
2023-04-23T03:29:19.513Z,17.60
2023-04-23T03:30:19.465Z,17.59
2023-04-23T03:31:19.531Z,17.54
2023-04-23T03:32:19.544Z,17.57
2023-04-23T03:33:19.590Z,17.53
2023-04-23T03:34:19.620Z,17.54
2023-04-23T03:35:19.646Z,17.52
2023-04-23T03:36:19.677Z,17.54
2023-04-23T03:37:19.766Z,17.52
2023-04-23T03:38:19.774Z,17.49
2023-04-23T03:39:19.802Z,17.48
2023-04-23T03:40:19.846Z,17.45
2023-04-23T03:41:19.869Z,17.49
2023-04-23T03:42:19.891Z,17.49
2023-04-23T03:43:19.948Z,17.49
2023-04-23T03:44:19.987Z,17.50
2023-04-23T03:45:20.021Z,17.48
2023-04-23T03:46:20.157Z,17.48
2023-04-23T03:47:20.242Z,17.42
2023-04-23T03:48:20.126Z,17.48
2023-04-23T03:49:20.152Z,17.48
2023-04-23T03:50:20.175Z,17.49
2023-04-23T03:51:20.198Z,17.46
2023-04-23T03:52:20.227Z,17.50
2023-04-23T03:53:20.275Z,17.48
2023-04-23T03:54:20.292Z,17.46
2023-04-23T03:55:20.338Z,17.45
2023-04-23T03:56:20.348Z,17.45
2023-04-23T03:57:20.376Z,17.39
2023-04-23T03:58:20.398Z,17.36
2023-04-23T03:59:20.436Z,17.40
2023-04-23T04:00:20.456Z,17.39
2023-04-23T04:01:20.493Z,17.35
2023-04-23T04:02:20.574Z,17.29
2023-04-23T04:03:20.698Z,17.38
2023-04-23T04:04:20.777Z,17.40
2023-04-23T04:05:20.714Z,17.40
2023-04-23T04:06:20.608Z,17.35
2023-04-23T04:07:20.621Z,17.39
2023-04-23T04:08:20.676Z,17.42
2023-04-23T04:09:20.694Z,17.49
2023-04-23T04:10:20.727Z,17.52
2023-04-23T04:11:20.738Z,17.53
2023-04-23T04:12:20.786Z,17.52
2023-04-23T04:13:20.800Z,17.48
2023-04-23T04:14:20.816Z,17.53
2023-04-23T04:15:20.837Z,17.53
2023-04-23T04:16:20.884Z,17.50
2023-04-23T04:17:20.933Z,17.52
2023-04-23T04:18:21.025Z,17.49
2023-04-23T04:19:20.984Z,17.50
2023-04-23T04:20:21.012Z,17.50
2023-04-23T04:21:21.055Z,17.49
2023-04-23T04:22:21.096Z,17.49
2023-04-23T04:23:21.122Z,17.50
2023-04-23T04:24:21.570Z,17.49
2023-04-23T04:25:21.188Z,17.50
2023-04-23T04:26:21.209Z,17.49
2023-04-23T04:27:21.221Z,17.48
2023-04-23T04:28:21.242Z,17.50
2023-04-23T04:29:21.281Z,17.48
2023-04-23T04:30:21.289Z,17.52
2023-04-23T04:31:21.350Z,17.50
2023-04-23T04:32:21.352Z,17.49
2023-04-23T04:33:21.351Z,17.52
2023-04-23T04:34:21.475Z,17.53
2023-04-23T04:35:21.425Z,17.52
2023-04-23T04:36:21.422Z,17.53
2023-04-23T04:37:21.431Z,17.52
2023-04-23T04:38:21.453Z,17.53
2023-04-23T04:39:21.485Z,17.52
2023-04-23T04:40:21.503Z,17.53
2023-04-23T04:41:21.554Z,17.50
2023-04-23T04:42:21.594Z,17.50
2023-04-23T04:43:21.601Z,17.50
2023-04-23T04:44:21.662Z,17.49
2023-04-23T04:45:21.706Z,17.52
2023-04-23T04:46:21.741Z,17.48
2023-04-23T04:47:21.828Z,17.46
2023-04-23T04:48:21.851Z,17.49
2023-04-23T04:49:21.877Z,17.50
2023-04-23T04:50:21.912Z,17.50
2023-04-23T04:51:21.937Z,17.49
2023-04-23T04:52:21.961Z,17.50
2023-04-23T04:53:21.997Z,17.52
2023-04-23T04:54:22.026Z,17.53
2023-04-23T04:55:22.054Z,17.53
2023-04-23T04:56:22.080Z,17.57
2023-04-23T04:57:22.100Z,17.52
2023-04-23T04:58:22.150Z,17.54
2023-04-23T04:59:22.136Z,17.56
2023-04-23T05:00:22.183Z,17.57
2023-04-23T05:01:22.218Z,17.56
2023-04-23T05:02:22.375Z,17.54
2023-04-23T05:03:22.398Z,17.54
2023-04-23T05:04:22.347Z,17.53
2023-04-23T05:05:22.332Z,17.49
2023-04-23T05:06:22.354Z,17.50
2023-04-23T05:07:22.392Z,17.53
2023-04-23T05:08:22.439Z,17.53
2023-04-23T05:09:22.473Z,17.52
2023-04-23T05:10:22.511Z,17.49
2023-04-23T05:11:22.565Z,17.49
2023-04-23T05:12:22.606Z,17.49
2023-04-23T05:13:22.664Z,17.48
2023-04-23T05:14:22.689Z,17.50
2023-04-23T05:15:22.752Z,17.52
2023-04-23T05:16:22.820Z,17.52
2023-04-23T05:17:22.842Z,17.53
2023-04-23T05:18:22.868Z,17.56
2023-04-23T05:19:22.901Z,17.57
2023-04-23T05:20:22.926Z,17.60
2023-04-23T05:21:22.958Z,17.59
2023-04-23T05:22:22.966Z,17.57
2023-04-23T05:23:22.969Z,17.56
2023-04-23T05:24:23.030Z,17.52
2023-04-23T05:25:23.083Z,17.54
2023-04-23T05:26:23.109Z,17.54
2023-04-23T05:27:23.138Z,17.56
2023-04-23T05:28:23.185Z,17.57
2023-04-23T05:29:23.208Z,17.56
2023-04-23T05:30:23.237Z,17.62
2023-04-23T05:31:23.298Z,17.59
2023-04-23T05:32:23.302Z,17.66
2023-04-23T05:33:23.333Z,17.66
2023-04-23T05:34:23.361Z,17.69
2023-04-23T05:35:23.327Z,17.67
2023-04-23T05:36:23.340Z,17.70
2023-04-23T05:37:23.349Z,17.74
2023-04-23T05:38:23.367Z,17.74
2023-04-23T05:39:23.377Z,17.73
2023-04-23T05:40:23.377Z,17.74
2023-04-23T05:41:23.390Z,17.74
2023-04-23T05:42:23.413Z,17.70
2023-04-23T05:43:23.416Z,17.73
2023-04-23T05:44:23.461Z,17.72
2023-04-23T05:45:23.448Z,17.72
2023-04-23T05:46:23.568Z,17.73
2023-04-23T05:47:23.521Z,17.72
2023-04-23T05:48:23.527Z,17.73
2023-04-23T05:49:23.530Z,17.73
2023-04-23T05:50:23.545Z,17.73
2023-04-23T05:51:23.566Z,17.72
2023-04-23T05:52:23.581Z,17.73
2023-04-23T05:53:23.586Z,17.77
2023-04-23T05:54:23.613Z,17.77
2023-04-23T05:55:23.618Z,17.80
2023-04-23T05:56:23.632Z,17.80
2023-04-23T05:57:23.663Z,17.81
2023-04-23T05:58:23.684Z,17.79
2023-04-23T05:59:23.683Z,17.81
2023-04-23T06:00:23.697Z,17.83
2023-04-23T06:01:23.710Z,17.86
2023-04-23T06:02:24.982Z,17.86
2023-04-23T06:03:23.862Z,17.84
2023-04-23T06:04:23.937Z,17.84
2023-04-23T06:05:23.891Z,17.87
2023-04-23T06:06:23.750Z,17.87
2023-04-23T06:07:23.745Z,17.86
2023-04-23T06:08:25.123Z,17.86
2023-04-23T06:09:23.761Z,17.87
2023-04-23T06:10:23.772Z,17.86
2023-04-23T06:11:23.796Z,17.87
2023-04-23T06:12:23.799Z,17.87
2023-04-23T06:13:23.802Z,17.90
2023-04-23T06:14:23.802Z,17.88
2023-04-23T06:15:23.835Z,17.91
2023-04-23T06:16:23.878Z,17.93
2023-04-23T06:17:23.848Z,17.93
2023-04-23T06:18:23.837Z,17.93
2023-04-23T06:19:23.844Z,17.97
2023-04-23T06:20:23.857Z,17.94
2023-04-23T06:21:23.864Z,17.94
2023-04-23T06:22:23.887Z,17.93
2023-04-23T06:23:23.881Z,17.96
2023-04-23T06:24:23.924Z,17.91
2023-04-23T06:25:23.915Z,17.94
2023-04-23T06:26:23.926Z,17.97
2023-04-23T06:27:23.947Z,18.01
2023-04-23T06:28:23.954Z,18.01
2023-04-23T06:29:23.980Z,18.00
2023-04-23T06:30:23.990Z,18.01
2023-04-23T06:31:24.016Z,18.07
2023-04-23T06:32:24.056Z,18.07
2023-04-23T06:33:24.053Z,18.10
2023-04-23T06:34:24.056Z,18.08
2023-04-23T06:35:24.090Z,18.11
2023-04-23T06:36:24.106Z,18.10
2023-04-23T06:37:24.141Z,18.14
2023-04-23T06:38:24.146Z,18.15
2023-04-23T06:39:24.150Z,18.17
2023-04-23T06:40:24.174Z,18.17
2023-04-23T06:41:24.220Z,18.23
2023-04-23T06:42:24.393Z,18.24
2023-04-23T06:43:24.239Z,18.28
2023-04-23T06:44:24.249Z,18.28
2023-04-23T06:45:24.347Z,18.29
2023-04-23T06:46:24.307Z,18.31
2023-04-23T06:47:24.296Z,18.32
2023-04-23T06:48:24.319Z,18.37
2023-04-23T06:49:24.335Z,18.38
2023-04-23T06:50:24.368Z,18.38
2023-04-23T06:51:24.366Z,18.39
2023-04-23T06:52:24.404Z,18.37
2023-04-23T06:53:24.401Z,18.42
2023-04-23T06:54:24.466Z,18.42
2023-04-23T06:55:24.501Z,18.47
2023-04-23T06:56:24.724Z,18.47
2023-04-23T06:57:24.510Z,18.49
2023-04-23T06:58:24.532Z,18.49
2023-04-23T06:59:24.544Z,18.49
2023-04-23T07:00:24.550Z,18.49
2023-04-23T07:01:24.601Z,18.52
2023-04-23T07:02:24.677Z,18.55
2023-04-23T07:03:24.601Z,18.56
2023-04-23T07:04:24.752Z,18.56
2023-04-23T07:05:24.659Z,18.60
2023-04-23T07:06:24.666Z,18.63
2023-04-23T07:07:24.700Z,18.63
2023-04-23T07:08:24.734Z,18.65
2023-04-23T07:09:24.787Z,18.68
2023-04-23T07:10:24.806Z,18.69
2023-04-23T07:11:24.820Z,18.69
2023-04-23T07:12:24.853Z,18.73
2023-04-23T07:13:24.931Z,18.75
2023-04-23T07:14:24.954Z,18.72
2023-04-23T07:15:25.026Z,18.73
2023-04-23T07:16:25.034Z,18.73
2023-04-23T07:17:25.008Z,18.76
2023-04-23T07:18:25.018Z,18.77
2023-04-23T07:19:25.028Z,18.77
2023-04-23T07:20:25.059Z,18.79
2023-04-23T07:21:25.158Z,18.80
2023-04-23T07:22:25.186Z,18.80
2023-04-23T07:23:25.256Z,18.80
2023-04-23T07:24:25.303Z,18.83
2023-04-23T07:25:25.356Z,18.82
2023-04-23T07:26:25.396Z,18.86
2023-04-23T07:27:25.467Z,18.87
2023-04-23T07:28:25.528Z,18.86
2023-04-23T07:29:25.580Z,18.90
2023-04-23T07:30:25.753Z,18.90
2023-04-23T07:31:25.764Z,18.92
2023-04-23T07:32:25.783Z,18.96
2023-04-23T07:33:25.839Z,18.95
2023-04-23T07:34:25.905Z,18.99
2023-04-23T07:35:25.965Z,19.02
2023-04-23T07:36:26.031Z,19.05
2023-04-23T07:37:26.076Z,19.06
2023-04-23T07:38:26.212Z,19.10
2023-04-23T07:39:26.171Z,19.11
2023-04-23T07:40:26.220Z,19.17
2023-04-23T07:41:26.263Z,19.18
2023-04-23T07:42:26.291Z,19.21
2023-04-23T07:43:26.336Z,19.24
2023-04-23T07:44:26.390Z,19.27
2023-04-23T07:45:26.413Z,19.30
2023-04-23T07:46:26.499Z,19.31
2023-04-23T07:47:26.516Z,19.35
2023-04-23T07:48:26.578Z,19.35
2023-04-23T07:49:26.555Z,19.41
2023-04-23T07:50:26.595Z,19.42
2023-04-23T07:51:26.628Z,19.41
2023-04-23T07:52:26.651Z,19.45
2023-04-23T07:53:26.691Z,19.50
2023-04-23T07:54:26.701Z,19.53
2023-04-23T07:55:26.744Z,19.53
2023-04-23T07:56:26.769Z,19.53
2023-04-23T07:57:26.775Z,19.54
2023-04-23T07:58:26.796Z,19.58
2023-04-23T07:59:26.827Z,19.62
2023-04-23T08:00:26.830Z,19.66
2023-04-23T08:01:26.852Z,19.65
2023-04-23T08:02:26.971Z,19.66
2023-04-23T08:03:27.036Z,19.72
2023-04-23T08:04:27.097Z,19.75
2023-04-23T08:05:26.972Z,19.74
2023-04-23T08:06:26.943Z,19.79
2023-04-23T08:07:26.992Z,19.85
2023-04-23T08:08:27.057Z,19.89
2023-04-23T08:09:27.135Z,19.89
2023-04-23T08:10:27.159Z,19.92
2023-04-23T08:11:27.198Z,19.91
2023-04-23T08:12:27.275Z,19.95
2023-04-23T08:13:27.346Z,19.99
2023-04-23T08:14:27.388Z,20.03
2023-04-23T08:15:27.473Z,20.05
2023-04-23T08:16:27.575Z,20.11
2023-04-23T08:17:27.595Z,20.09
2023-04-23T08:18:27.611Z,19.88
2023-04-23T08:19:27.654Z,19.95
2023-04-23T08:20:27.696Z,19.96
2023-04-23T08:21:27.724Z,20.03
2023-04-23T08:22:27.749Z,20.13
2023-04-23T08:23:27.791Z,20.17
2023-04-23T08:24:27.801Z,20.22
2023-04-23T08:25:27.828Z,20.13
2023-04-23T08:26:27.854Z,20.19
2023-04-23T08:27:27.846Z,20.19
2023-04-23T08:28:27.869Z,20.27
2023-04-23T08:29:27.902Z,20.33
2023-04-23T08:30:27.900Z,20.36
2023-04-23T08:31:27.993Z,20.42
2023-04-23T08:32:27.986Z,20.39
2023-04-23T08:33:27.923Z,20.36
2023-04-23T08:34:27.944Z,20.47
2023-04-23T08:35:27.941Z,20.46
2023-04-23T08:36:27.933Z,20.50
2023-04-23T08:37:31.394Z,20.56
2023-04-23T08:38:27.919Z,20.62
2023-04-23T08:39:27.927Z,20.60
2023-04-23T08:40:27.915Z,20.66
2023-04-23T08:41:27.909Z,20.68
2023-04-23T08:42:27.890Z,20.73
2023-04-23T08:43:27.893Z,20.73
2023-04-23T08:44:27.873Z,20.77
2023-04-23T08:45:27.882Z,20.81
2023-04-23T08:46:27.931Z,20.78
2023-04-23T08:47:27.857Z,20.80
2023-04-23T08:48:27.858Z,20.83
2023-04-23T08:49:27.838Z,20.85
2023-04-23T08:50:27.839Z,20.90
2023-04-23T08:51:27.845Z,20.90
2023-04-23T08:52:27.829Z,20.95
2023-04-23T08:53:27.816Z,20.98
2023-04-23T08:54:27.823Z,21.01
2023-04-23T08:55:27.827Z,21.04
2023-04-23T08:56:27.801Z,21.05
2023-04-23T08:57:27.802Z,21.08
2023-04-23T08:58:27.778Z,21.05
2023-04-23T08:59:27.771Z,21.09
2023-04-23T09:00:27.769Z,21.09
2023-04-23T09:01:27.758Z,21.09
2023-04-23T09:02:27.882Z,21.15
2023-04-23T09:03:27.844Z,21.18
2023-04-23T09:04:27.749Z,21.09
2023-04-23T09:05:27.733Z,21.14
2023-04-23T09:06:27.740Z,21.15
2023-04-23T09:07:27.741Z,21.02
2023-04-23T09:08:27.724Z,21.14
2023-04-23T09:09:27.725Z,21.16
2023-04-23T09:10:27.706Z,21.18
2023-04-23T09:11:27.711Z,20.99
2023-04-23T09:12:27.688Z,21.12
2023-04-23T09:13:27.683Z,20.87
2023-04-23T09:14:27.697Z,20.91
2023-04-23T09:15:27.663Z,21.01
2023-04-23T09:16:27.704Z,20.94
2023-04-23T09:17:27.669Z,21.08
2023-04-23T09:18:27.655Z,20.87
2023-04-23T09:19:27.626Z,21.01
2023-04-23T09:20:27.641Z,21.01
2023-04-23T09:21:27.622Z,21.09
2023-04-23T09:22:27.623Z,20.91
2023-04-23T09:23:27.664Z,21.02
2023-04-23T09:24:27.673Z,21.14
2023-04-23T09:25:27.701Z,21.16
2023-04-23T09:26:27.732Z,21.06
2023-04-23T09:27:27.749Z,21.21
2023-04-23T09:28:27.792Z,21.23
2023-04-23T09:29:27.826Z,21.32
2023-04-23T09:30:27.895Z,21.23
2023-04-23T09:31:27.915Z,21.32
2023-04-23T09:32:27.923Z,21.39
2023-04-23T09:33:27.938Z,21.42
2023-04-23T09:34:27.960Z,20.99
2023-04-23T09:35:27.965Z,21.19
2023-04-23T09:36:28.000Z,21.23
2023-04-23T09:37:27.994Z,21.28
2023-04-23T09:38:28.110Z,21.11
2023-04-23T09:39:28.111Z,21.08
2023-04-23T09:40:28.147Z,21.14
2023-04-23T09:41:28.179Z,21.22
2023-04-23T09:42:28.156Z,21.28
2023-04-23T09:43:28.169Z,21.36
2023-04-23T09:44:28.288Z,21.32
2023-04-23T09:45:28.367Z,21.42
2023-04-23T09:46:28.545Z,21.42
2023-04-23T09:47:28.471Z,21.46
2023-04-23T09:48:28.478Z,21.54
2023-04-23T09:49:28.476Z,21.57
2023-04-23T09:50:28.463Z,21.67
2023-04-23T09:51:28.466Z,21.74
2023-04-23T09:52:28.500Z,21.77
2023-04-23T09:53:28.532Z,21.84
2023-04-23T09:54:28.536Z,21.77
2023-04-23T09:55:28.575Z,21.72
2023-04-23T09:56:28.657Z,21.79
2023-04-23T09:57:28.711Z,21.82
2023-04-23T09:58:29.107Z,21.86
2023-04-23T09:59:46.101Z,21.86
2023-04-23T10:00:29.810Z,21.90
2023-04-23T10:01:28.836Z,21.86
2023-04-23T10:02:28.855Z,21.99
2023-04-23T10:03:28.975Z,21.89
2023-04-23T10:04:28.902Z,21.90
2023-04-23T10:05:34.209Z,21.94
2023-04-23T10:06:42.513Z,21.36
2023-04-23T10:07:29.764Z,21.72
2023-04-23T10:08:28.744Z,21.74
2023-04-23T10:09:28.747Z,21.83
2023-04-23T10:10:28.721Z,21.89
2023-04-23T10:11:28.714Z,21.91
2023-04-23T10:12:46.467Z,21.94
2023-04-23T10:13:29.718Z,21.96
2023-04-23T10:14:28.715Z,22.03
2023-04-23T10:15:28.757Z,22.04
2023-04-23T10:16:38.687Z,22.07
2023-04-23T10:17:29.747Z,22.08
2023-04-23T10:18:28.673Z,22.10
2023-04-23T10:19:28.681Z,22.12
2023-04-23T10:20:28.669Z,22.11
2023-04-23T10:21:32.039Z,22.12
2023-04-23T10:22:29.630Z,22.12
2023-04-23T10:23:28.655Z,22.17
2023-04-23T10:24:28.636Z,22.12
2023-04-23T10:25:28.645Z,22.15
2023-04-23T10:26:28.599Z,22.12
2023-04-23T10:27:36.672Z,22.17
2023-04-23T10:28:29.594Z,22.17
2023-04-23T10:29:28.593Z,22.17
2023-04-23T10:30:28.586Z,22.18
2023-04-23T10:31:28.599Z,22.18
2023-04-23T10:32:28.586Z,22.15
2023-04-23T10:33:31.727Z,22.20
2023-04-23T10:34:29.587Z,22.15
2023-04-23T10:35:28.540Z,22.20
2023-04-23T10:36:28.539Z,22.25
2023-04-23T10:37:28.529Z,22.30
2023-04-23T10:38:28.545Z,22.35
2023-04-23T10:39:30.133Z,22.40
2023-04-23T10:40:28.518Z,22.44
2023-04-23T10:41:28.510Z,22.45
2023-04-23T10:42:28.513Z,22.40
2023-04-23T10:43:28.506Z,22.41
2023-04-23T10:44:50.082Z,22.25
2023-04-23T10:45:29.485Z,22.15
2023-04-23T10:46:28.501Z,22.27
2023-04-23T10:47:28.509Z,22.30
2023-04-23T10:48:28.469Z,22.34
2023-04-23T10:49:28.452Z,22.34
2023-04-23T10:50:28.458Z,22.27
2023-04-23T10:52:10.199Z,22.35
2023-04-23T10:52:29.453Z,22.35
2023-04-23T10:53:28.427Z,22.21
2023-04-23T10:54:28.435Z,22.25
2023-04-23T10:55:28.433Z,22.35
2023-04-23T10:56:28.409Z,22.41
2023-04-23T10:57:28.401Z,22.48
2023-04-23T10:58:28.386Z,22.44
2023-04-23T10:59:28.382Z,22.54
2023-04-23T11:00:28.384Z,22.56
2023-04-23T11:01:28.389Z,22.61
2023-04-23T11:02:28.475Z,22.65
2023-04-23T11:03:28.504Z,22.69
2023-04-23T11:04:28.674Z,22.73
2023-04-23T11:05:28.341Z,22.76
2023-04-23T11:06:28.340Z,22.82
2023-04-23T11:07:28.325Z,22.82
2023-04-23T11:08:28.318Z,22.58
2023-04-23T11:09:28.324Z,22.58
2023-04-23T11:10:28.309Z,22.66
2023-04-23T11:11:28.288Z,22.75
2023-04-23T11:12:28.311Z,22.73
2023-04-23T11:13:28.296Z,22.78
2023-04-23T11:14:28.478Z,22.78
2023-04-23T11:15:28.271Z,22.72
2023-04-23T11:16:28.276Z,22.73
2023-04-23T11:17:28.266Z,22.82
2023-04-23T11:18:28.247Z,22.80
2023-04-23T11:19:28.249Z,22.88
2023-04-23T11:20:28.246Z,22.73
2023-04-23T11:21:28.300Z,22.93
2023-04-23T11:22:28.319Z,22.95
2023-04-23T11:23:28.354Z,23.02
2023-04-23T11:24:28.364Z,23.06
2023-04-23T11:25:28.422Z,23.14
2023-04-23T11:26:28.458Z,23.19
2023-04-23T11:27:28.508Z,23.20
2023-04-23T11:28:28.545Z,23.24
2023-04-23T11:29:28.593Z,23.24
2023-04-23T11:30:28.615Z,23.30
2023-04-23T11:31:28.610Z,23.29
2023-04-23T11:32:28.660Z,23.31
2023-04-23T11:33:28.673Z,23.40
2023-04-23T11:34:28.692Z,23.40
2023-04-23T11:35:28.724Z,23.27
2023-04-23T11:36:28.728Z,23.39
2023-04-23T11:37:28.741Z,23.26
2023-04-23T11:38:28.792Z,23.20
2023-04-23T11:39:28.821Z,23.29
2023-04-23T11:40:28.865Z,23.27
2023-04-23T11:41:28.902Z,23.33
2023-04-23T11:42:28.903Z,23.24
2023-04-23T11:43:28.938Z,23.24
2023-04-23T11:44:28.994Z,23.30
2023-04-23T11:45:29.015Z,23.33
2023-04-23T11:46:29.222Z,23.29
2023-04-23T11:47:29.134Z,23.21
2023-04-23T11:48:29.135Z,23.30
2023-04-23T11:49:29.168Z,23.40
2023-04-23T11:50:29.216Z,23.50
2023-04-23T11:51:29.217Z,23.44
2023-04-23T11:52:29.228Z,23.48
2023-04-23T11:53:29.259Z,23.48
2023-04-23T11:54:29.305Z,23.48
2023-04-23T11:55:29.303Z,23.50
2023-04-23T11:56:29.324Z,23.33
2023-04-23T11:57:29.335Z,23.41
2023-04-23T11:58:29.378Z,23.51
2023-04-23T11:59:29.391Z,23.50
2023-04-23T12:00:29.408Z,23.57
2023-04-23T12:01:29.429Z,23.57
2023-04-23T12:02:29.543Z,23.54
2023-04-23T12:03:29.571Z,23.56
2023-04-23T12:04:29.499Z,23.51
2023-04-23T12:05:29.535Z,23.56
2023-04-23T12:06:29.527Z,23.58
2023-04-23T12:07:29.553Z,23.61
2023-04-23T12:08:29.538Z,23.61
2023-04-23T12:10:29.585Z,23.50
2023-04-23T12:11:29.593Z,23.51
2023-04-23T12:12:29.612Z,23.56
2023-04-23T12:13:29.617Z,23.60
2023-04-23T12:14:29.619Z,23.61
2023-04-23T12:15:29.611Z,23.58
2023-04-23T12:16:29.676Z,23.62
2023-04-23T12:17:29.655Z,23.61
2023-04-23T12:18:29.634Z,23.62
2023-04-23T12:19:29.625Z,23.68
2023-04-23T12:20:29.653Z,23.69
2023-04-23T12:21:29.643Z,23.68
2023-04-23T12:22:29.707Z,23.72
2023-04-23T12:23:29.652Z,23.74
2023-04-23T12:24:29.731Z,23.72
2023-04-23T12:25:29.758Z,23.75
2023-04-23T12:26:29.783Z,23.81
2023-04-23T12:27:29.767Z,23.81
2023-04-23T12:28:29.777Z,23.85
2023-04-23T12:29:29.807Z,23.85
2023-04-23T12:30:29.821Z,23.87
2023-04-23T12:31:29.959Z,23.89
2023-04-23T12:32:29.828Z,23.88
2023-04-23T12:33:29.814Z,23.91
2023-04-23T12:34:29.850Z,23.95
2023-04-23T12:35:29.881Z,23.92
2023-04-23T12:36:29.935Z,23.89
2023-04-23T12:37:30.007Z,23.92
2023-04-23T12:38:30.037Z,23.97
2023-04-23T12:39:30.121Z,23.94
2023-04-23T12:40:30.161Z,23.94
2023-04-23T12:41:32.331Z,23.98
2023-04-23T12:42:30.192Z,24.02
2023-04-23T12:43:30.183Z,23.97
2023-04-23T12:44:30.212Z,24.02
2023-04-23T12:45:30.174Z,23.95
2023-04-23T12:46:30.183Z,24.01
2023-04-23T12:47:30.197Z,23.97
2023-04-23T12:48:30.163Z,24.05
2023-04-23T12:49:30.167Z,24.06
2023-04-23T12:50:30.150Z,23.94
2023-04-23T12:51:30.145Z,23.69
2023-04-23T12:52:30.147Z,23.85
2023-04-23T12:53:30.126Z,23.91